sensor_id;sensor_type;location;lat;lon;timestamp;pressure;altitude;pressure_sealevel;temperature;humidity
80733;BME280;70130;44.534;18.678;2023-09-18T00:01:18;99181.41;;;17.30;77.67
80733;BME280;70130;44.534;18.678;2023-09-18T00:03:48;99186.09;;;17.33;77.77
80733;BME280;70130;44.534;18.678;2023-09-18T00:06:13;99191.56;;;17.10;78.40
80733;BME280;70130;44.534;18.678;2023-09-18T00:08:42;99192.81;;;17.16;78.23
80733;BME280;70130;44.534;18.678;2023-09-18T00:11:11;99189.81;;;17.21;77.74
80733;BME280;70130;44.534;18.678;2023-09-18T00:13:40;99181.25;;;17.19;77.64
80733;BME280;70130;44.534;18.678;2023-09-18T00:16:05;99180.88;;;17.21;77.94
80733;BME280;70130;44.534;18.678;2023-09-18T00:18:34;99183.13;;;17.15;78.11
80733;BME280;70130;44.534;18.678;2023-09-18T00:21:02;99182.72;;;17.17;77.73
80733;BME280;70130;44.534;18.678;2023-09-18T00:23:28;99181.25;;;17.19;77.71
80733;BME280;70130;44.534;18.678;2023-09-18T00:25:53;99175.06;;;17.22;77.55
80733;BME280;70130;44.534;18.678;2023-09-18T00:28:19;99182.38;;;17.18;77.54
80733;BME280;70130;44.534;18.678;2023-09-18T00:30:49;99183.47;;;17.14;77.79
80733;BME280;70130;44.534;18.678;2023-09-18T00:33:18;99180.28;;;17.08;77.86
80733;BME280;70130;44.534;18.678;2023-09-18T00:35:50;99182.28;;;17.11;77.87
80733;BME280;70130;44.534;18.678;2023-09-18T00:38:19;99181.78;;;17.06;78.19
80733;BME280;70130;44.534;18.678;2023-09-18T00:40:45;99181.72;;;17.02;78.26
80733;BME280;70130;44.534;18.678;2023-09-18T00:43:10;99181.59;;;16.95;78.06
80733;BME280;70130;44.534;18.678;2023-09-18T00:45:45;99191.75;;;16.79;78.88
80733;BME280;70130;44.534;18.678;2023-09-18T00:48:11;99182.84;;;16.78;78.52
80733;BME280;70130;44.534;18.678;2023-09-18T00:50:41;99189.19;;;16.86;78.32
80733;BME280;70130;44.534;18.678;2023-09-18T00:53:14;99183.69;;;16.82;78.23
80733;BME280;70130;44.534;18.678;2023-09-18T00:55:41;99177.56;;;16.86;78.50
80733;BME280;70130;44.534;18.678;2023-09-18T00:58:07;99189.06;;;16.79;78.32
80733;BME280;70130;44.534;18.678;2023-09-18T01:00:33;99182.16;;;16.81;78.38
80733;BME280;70130;44.534;18.678;2023-09-18T01:03:23;99185.75;;;16.66;79.04
80733;BME280;70130;44.534;18.678;2023-09-18T01:05:51;99182.34;;;16.73;78.71
80733;BME280;70130;44.534;18.678;2023-09-18T01:08:19;99185.06;;;16.73;78.67
80733;BME280;70130;44.534;18.678;2023-09-18T01:11:10;99181.22;;;16.74;78.93
80733;BME280;70130;44.534;18.678;2023-09-18T01:13:50;99177.38;;;16.75;78.87
80733;BME280;70130;44.534;18.678;2023-09-18T01:16:57;99179.28;;;16.74;78.72
80733;BME280;70130;44.534;18.678;2023-09-18T01:22:16;99178.56;;;16.77;78.81
80733;BME280;70130;44.534;18.678;2023-09-18T01:24:44;99179.66;;;16.73;78.69
80733;BME280;70130;44.534;18.678;2023-09-18T01:27:15;99175.41;;;16.72;78.69
80733;BME280;70130;44.534;18.678;2023-09-18T01:29:46;99177.22;;;16.68;78.79
80733;BME280;70130;44.534;18.678;2023-09-18T01:32:12;99171.06;;;16.67;78.94
80733;BME280;70130;44.534;18.678;2023-09-18T01:34:50;99175.69;;;16.67;79.14
80733;BME280;70130;44.534;18.678;2023-09-18T01:37:19;99174.75;;;16.59;78.90
80733;BME280;70130;44.534;18.678;2023-09-18T01:39:51;99173.09;;;16.55;78.93
80733;BME280;70130;44.534;18.678;2023-09-18T01:42:29;99176.94;;;16.54;79.05
80733;BME280;70130;44.534;18.678;2023-09-18T01:44:58;99161.22;;;16.40;79.56
80733;BME280;70130;44.534;18.678;2023-09-18T01:47:27;99161.66;;;16.42;79.80
80733;BME280;70130;44.534;18.678;2023-09-18T01:49:55;99158.06;;;16.38;79.58
80733;BME280;70130;44.534;18.678;2023-09-18T01:52:24;99152.59;;;16.34;79.90
80733;BME280;70130;44.534;18.678;2023-09-18T01:54:58;99146.31;;;16.30;79.89
80733;BME280;70130;44.534;18.678;2023-09-18T01:57:25;99164.19;;;16.35;79.63
80733;BME280;70130;44.534;18.678;2023-09-18T01:59:54;99158.72;;;16.12;80.55
80733;BME280;70130;44.534;18.678;2023-09-18T02:02:22;99156.16;;;16.19;80.12
80733;BME280;70130;44.534;18.678;2023-09-18T02:04:49;99154.66;;;16.22;80.16
80733;BME280;70130;44.534;18.678;2023-09-18T02:07:18;99145.53;;;16.11;80.28
80733;BME280;70130;44.534;18.678;2023-09-18T02:09:46;99155.25;;;16.12;80.20
80733;BME280;70130;44.534;18.678;2023-09-18T02:12:12;99150.22;;;16.14;80.10
80733;BME280;70130;44.534;18.678;2023-09-18T02:14:44;99147.13;;;16.12;80.36
80733;BME280;70130;44.534;18.678;2023-09-18T02:17:16;99159.25;;;16.18;80.07
80733;BME280;70130;44.534;18.678;2023-09-18T02:19:44;99154.09;;;16.13;80.13
80733;BME280;70130;44.534;18.678;2023-09-18T02:22:13;99155.94;;;16.09;80.55
80733;BME280;70130;44.534;18.678;2023-09-18T02:24:41;99152.53;;;16.12;79.97
80733;BME280;70130;44.534;18.678;2023-09-18T02:27:10;99154.00;;;16.09;80.31
80733;BME280;70130;44.534;18.678;2023-09-18T02:29:37;99151.53;;;16.01;80.49
80733;BME280;70130;44.534;18.678;2023-09-18T02:32:05;99153.66;;;15.91;81.01
80733;BME280;70130;44.534;18.678;2023-09-18T02:34:34;99165.53;;;15.87;81.36
80733;BME280;70130;44.534;18.678;2023-09-18T02:37:03;99156.28;;;15.88;81.35
80733;BME280;70130;44.534;18.678;2023-09-18T02:39:31;99156.44;;;15.95;80.95
80733;BME280;70130;44.534;18.678;2023-09-18T02:41:58;99154.56;;;15.99;80.66
80733;BME280;70130;44.534;18.678;2023-09-18T02:44:26;99165.41;;;15.99;80.87
80733;BME280;70130;44.534;18.678;2023-09-18T02:46:55;99154.94;;;15.97;80.72
80733;BME280;70130;44.534;18.678;2023-09-18T02:49:23;99162.91;;;15.90;80.85
80733;BME280;70130;44.534;18.678;2023-09-18T02:51:52;99156.03;;;15.93;80.70
80733;BME280;70130;44.534;18.678;2023-09-18T02:54:20;99161.78;;;15.91;80.62
80733;BME280;70130;44.534;18.678;2023-09-18T02:56:49;99153.03;;;15.98;80.42
80733;BME280;70130;44.534;18.678;2023-09-18T02:59:18;99141.31;;;15.94;80.63
80733;BME280;70130;44.534;18.678;2023-09-18T03:01:44;99151.28;;;15.90;80.66
80733;BME280;70130;44.534;18.678;2023-09-18T03:04:13;99140.75;;;15.85;80.79
80733;BME280;70130;44.534;18.678;2023-09-18T03:06:42;99144.03;;;15.94;80.55
80733;BME280;70130;44.534;18.678;2023-09-18T03:09:09;99141.97;;;15.87;81.00
80733;BME280;70130;44.534;18.678;2023-09-18T03:11:38;99146.03;;;15.78;81.04
80733;BME280;70130;44.534;18.678;2023-09-18T03:14:03;99142.16;;;15.79;80.74
80733;BME280;70130;44.534;18.678;2023-09-18T03:16:30;99133.91;;;15.72;81.41
80733;BME280;70130;44.534;18.678;2023-09-18T03:18:58;99144.28;;;15.70;81.54
80733;BME280;70130;44.534;18.678;2023-09-18T03:21:39;99136.88;;;15.67;81.33
80733;BME280;70130;44.534;18.678;2023-09-18T03:24:08;99134.63;;;15.69;81.46
80733;BME280;70130;44.534;18.678;2023-09-18T03:26:37;99128.44;;;15.68;81.24
80733;BME280;70130;44.534;18.678;2023-09-18T03:29:06;99131.41;;;15.63;81.45
80733;BME280;70130;44.534;18.678;2023-09-18T03:31:32;99123.28;;;15.63;81.49
80733;BME280;70130;44.534;18.678;2023-09-18T03:33:57;99132.63;;;15.66;81.18
80733;BME280;70130;44.534;18.678;2023-09-18T03:36:23;99138.88;;;15.70;81.03
80733;BME280;70130;44.534;18.678;2023-09-18T03:38:52;99129.41;;;15.60;81.41
80733;BME280;70130;44.534;18.678;2023-09-18T03:41:21;99122.59;;;15.50;81.99
80733;BME280;70130;44.534;18.678;2023-09-18T03:43:50;99122.50;;;15.47;81.91
80733;BME280;70130;44.534;18.678;2023-09-18T03:46:16;99128.38;;;15.49;81.87
80733;BME280;70130;44.534;18.678;2023-09-18T03:48:47;99129.25;;;15.37;82.81
80733;BME280;70130;44.534;18.678;2023-09-18T03:51:13;99125.84;;;15.40;82.64
80733;BME280;70130;44.534;18.678;2023-09-18T03:53:41;99129.06;;;15.46;82.43
80733;BME280;70130;44.534;18.678;2023-09-18T03:56:16;99121.47;;;15.36;82.32
80733;BME280;70130;44.534;18.678;2023-09-18T03:58:42;99126.78;;;15.48;81.89
80733;BME280;70130;44.534;18.678;2023-09-18T04:01:08;99128.19;;;15.42;82.17
80733;BME280;70130;44.534;18.678;2023-09-18T04:03:33;99120.19;;;15.30;82.60
80733;BME280;70130;44.534;18.678;2023-09-18T04:05:59;99116.06;;;15.36;82.31
80733;BME280;70130;44.534;18.678;2023-09-18T04:08:24;99122.59;;;15.35;82.65
80733;BME280;70130;44.534;18.678;2023-09-18T04:10:55;99114.41;;;15.47;82.26
80733;BME280;70130;44.534;18.678;2023-09-18T04:13:24;99118.16;;;15.42;82.28
80733;BME280;70130;44.534;18.678;2023-09-18T04:15:50;99110.47;;;15.44;82.13
80733;BME280;70130;44.534;18.678;2023-09-18T04:18:17;99115.88;;;15.44;81.93
80733;BME280;70130;44.534;18.678;2023-09-18T04:20:43;99114.66;;;15.42;82.25
80733;BME280;70130;44.534;18.678;2023-09-18T04:23:21;99114.31;;;15.43;82.05
80733;BME280;70130;44.534;18.678;2023-09-18T04:25:47;99116.75;;;15.48;82.08
80733;BME280;70130;44.534;18.678;2023-09-18T04:28:17;99117.66;;;15.52;81.88
80733;BME280;70130;44.534;18.678;2023-09-18T04:30:52;99112.25;;;15.52;81.57
80733;BME280;70130;44.534;18.678;2023-09-18T04:33:25;99113.81;;;15.53;81.57
80733;BME280;70130;44.534;18.678;2023-09-18T04:35:57;99111.53;;;15.55;81.52
80733;BME280;70130;44.534;18.678;2023-09-18T04:38:25;99111.53;;;15.55;81.58
80733;BME280;70130;44.534;18.678;2023-09-18T04:41:00;99106.34;;;15.50;81.20
80733;BME280;70130;44.534;18.678;2023-09-18T04:43:26;99118.50;;;15.57;81.39
80733;BME280;70130;44.534;18.678;2023-09-18T04:45:58;99116.06;;;15.51;81.34
80733;BME280;70130;44.534;18.678;2023-09-18T04:48:24;99107.06;;;15.47;81.46
80733;BME280;70130;44.534;18.678;2023-09-18T04:50:53;99112.75;;;15.42;81.70
80733;BME280;70130;44.534;18.678;2023-09-18T04:53:19;99110.91;;;15.46;81.36
80733;BME280;70130;44.534;18.678;2023-09-18T04:55:47;99110.56;;;15.48;81.48
80733;BME280;70130;44.534;18.678;2023-09-18T04:58:19;99106.34;;;15.50;81.08
80733;BME280;70130;44.534;18.678;2023-09-18T05:00:45;99113.81;;;15.53;80.96
80733;BME280;70130;44.534;18.678;2023-09-18T05:03:14;99117.66;;;15.52;80.90
80733;BME280;70130;44.534;18.678;2023-09-18T05:05:43;99116.06;;;15.51;81.06
80733;BME280;70130;44.534;18.678;2023-09-18T05:08:09;99114.59;;;15.54;80.98
80733;BME280;70130;44.534;18.678;2023-09-18T05:10:36;99114.41;;;15.63;81.23
80733;BME280;70130;44.534;18.678;2023-09-18T05:13:02;99117.78;;;15.60;81.13
80733;BME280;70130;44.534;18.678;2023-09-18T05:15:28;99117.00;;;15.59;81.13
80733;BME280;70130;44.534;18.678;2023-09-18T05:17:58;99122.50;;;15.63;81.15
80733;BME280;70130;44.534;18.678;2023-09-18T05:20:25;99127.75;;;15.55;81.29
80733;BME280;70130;44.534;18.678;2023-09-18T05:22:52;99130.91;;;15.58;81.21
80733;BME280;70130;44.534;18.678;2023-09-18T05:25:22;99126.63;;;15.41;82.05
80733;BME280;70130;44.534;18.678;2023-09-18T05:27:52;99124.38;;;15.27;83.04
80733;BME280;70130;44.534;18.678;2023-09-18T05:32:54;99125.69;;;15.33;83.04
80733;BME280;70130;44.534;18.678;2023-09-18T05:35:19;99129.13;;;15.49;82.66
80733;BME280;70130;44.534;18.678;2023-09-18T05:37:46;99129.31;;;15.57;82.16
80733;BME280;70130;44.534;18.678;2023-09-18T05:40:13;99131.75;;;15.62;82.41
80733;BME280;70130;44.534;18.678;2023-09-18T05:42:40;99132.50;;;15.78;81.62
80733;BME280;70130;44.534;18.678;2023-09-18T05:45:12;99135.63;;;15.80;81.33
80733;BME280;70130;44.534;18.678;2023-09-18T05:47:38;99133.19;;;15.94;80.60
80733;BME280;70130;44.534;18.678;2023-09-18T05:50:05;99130.94;;;15.96;81.03
80733;BME280;70130;44.534;18.678;2023-09-18T05:52:32;99125.69;;;16.03;80.97
80733;BME280;70130;44.534;18.678;2023-09-18T05:55:00;99129.81;;;16.16;80.56
80733;BME280;70130;44.534;18.678;2023-09-18T05:57:26;99123.75;;;16.23;80.60
80733;BME280;70130;44.534;18.678;2023-09-18T05:59:56;99119.81;;;16.20;81.03
80733;BME280;70130;44.534;18.678;2023-09-18T06:02:22;99115.41;;;16.31;80.80
80733;BME280;70130;44.534;18.678;2023-09-18T06:04:49;99117.03;;;16.36;80.43
80733;BME280;70130;44.534;18.678;2023-09-18T06:07:14;99114.09;;;16.45;80.05
80733;BME280;70130;44.534;18.678;2023-09-18T06:09:40;99115.84;;;16.56;79.93
80733;BME280;70130;44.534;18.678;2023-09-18T06:12:07;99112.50;;;16.63;79.63
80733;BME280;70130;44.534;18.678;2023-09-18T06:14:32;99111.06;;;16.69;78.89
80733;BME280;70130;44.534;18.678;2023-09-18T06:17:04;99110.72;;;16.70;79.29
80733;BME280;70130;44.534;18.678;2023-09-18T06:19:31;99106.25;;;16.81;78.73
80733;BME280;70130;44.534;18.678;2023-09-18T06:22:01;99104.88;;;16.91;78.46
80733;BME280;70130;44.534;18.678;2023-09-18T06:24:27;99105.81;;;17.02;78.37
80733;BME280;70130;44.534;18.678;2023-09-18T06:26:53;99101.72;;;17.12;78.24
80733;BME280;70130;44.534;18.678;2023-09-18T06:29:19;99100.25;;;17.18;77.88
80733;BME280;70130;44.534;18.678;2023-09-18T06:31:46;99094.59;;;17.26;77.24
80733;BME280;70130;44.534;18.678;2023-09-18T06:34:12;99099.34;;;17.37;77.26
80733;BME280;70130;44.534;18.678;2023-09-18T06:36:37;99098.69;;;17.43;77.18
80733;BME280;70130;44.534;18.678;2023-09-18T06:39:03;99094.50;;;17.49;77.02
80733;BME280;70130;44.534;18.678;2023-09-18T06:41:29;99091.13;;;17.56;77.13
80733;BME280;70130;44.534;18.678;2023-09-18T06:43:55;99084.22;;;17.62;76.98
80733;BME280;70130;44.534;18.678;2023-09-18T06:46:20;99080.06;;;17.68;77.10
80733;BME280;70130;44.534;18.678;2023-09-18T06:48:46;99085.97;;;17.77;76.72
80733;BME280;70130;44.534;18.678;2023-09-18T06:51:15;99078.28;;;17.83;76.66
80733;BME280;70130;44.534;18.678;2023-09-18T06:53:42;99084.63;;;17.94;76.62
80733;BME280;70130;44.534;18.678;2023-09-18T06:56:08;99087.81;;;17.99;76.30
80733;BME280;70130;44.534;18.678;2023-09-18T06:58:35;99090.22;;;18.08;75.64
80733;BME280;70130;44.534;18.678;2023-09-18T07:01:00;99083.28;;;18.10;75.20
80733;BME280;70130;44.534;18.678;2023-09-18T07:03:26;99083.72;;;18.16;75.19
80733;BME280;70130;44.534;18.678;2023-09-18T07:05:52;99080.31;;;18.23;75.03
80733;BME280;70130;44.534;18.678;2023-09-18T07:08:18;99080.41;;;18.30;74.47
80733;BME280;70130;44.534;18.678;2023-09-18T07:10:51;99075.44;;;18.39;74.20
80733;BME280;70130;44.534;18.678;2023-09-18T07:13:17;99062.41;;;18.55;73.81
80733;BME280;70130;44.534;18.678;2023-09-18T07:15:43;99067.94;;;18.66;73.54
80733;BME280;70130;44.534;18.678;2023-09-18T07:18:09;99073.06;;;18.74;72.83
80733;BME280;70130;44.534;18.678;2023-09-18T07:20:40;99075.44;;;18.79;72.52
80733;BME280;70130;44.534;18.678;2023-09-18T07:23:05;99070.41;;;18.85;72.04
80733;BME280;70130;44.534;18.678;2023-09-18T07:25:31;99081.03;;;19.01;71.36
80733;BME280;70130;44.534;18.678;2023-09-18T07:27:57;99076.53;;;19.19;70.72
80733;BME280;70130;44.534;18.678;2023-09-18T07:30:22;99071.84;;;19.19;70.54
80733;BME280;70130;44.534;18.678;2023-09-18T07:32:55;99064.94;;;19.29;70.48
80733;BME280;70130;44.534;18.678;2023-09-18T07:35:26;99067.72;;;19.43;70.15
80733;BME280;70130;44.534;18.678;2023-09-18T07:37:52;99060.03;;;19.49;70.10
80733;BME280;70130;44.534;18.678;2023-09-18T07:40:19;99060.41;;;19.54;69.79
80733;BME280;70130;44.534;18.678;2023-09-18T07:42:44;99060.03;;;19.56;70.04
80733;BME280;70130;44.534;18.678;2023-09-18T07:45:10;99063.66;;;19.84;69.89
80733;BME280;70130;44.534;18.678;2023-09-18T07:47:36;99069.19;;;20.06;68.65
80733;BME280;70130;44.534;18.678;2023-09-18T07:50:02;99061.81;;;20.10;68.02
80733;BME280;70130;44.534;18.678;2023-09-18T07:52:28;99072.31;;;20.11;67.73
80733;BME280;70130;44.534;18.678;2023-09-18T07:54:55;99075.09;;;20.25;67.56
80733;BME280;70130;44.534;18.678;2023-09-18T07:57:20;99064.97;;;20.22;67.76
80733;BME280;70130;44.534;18.678;2023-09-18T07:59:48;99065.41;;;20.35;67.50
80733;BME280;70130;44.534;18.678;2023-09-18T08:02:14;99065.78;;;20.44;67.69
80733;BME280;70130;44.534;18.678;2023-09-18T08:04:40;99064.66;;;20.59;66.75
80733;BME280;70130;44.534;18.678;2023-09-18T08:07:06;99051.00;;;20.52;67.36
80733;BME280;70130;44.534;18.678;2023-09-18T08:09:32;99051.41;;;20.54;67.24
80733;BME280;70130;44.534;18.678;2023-09-18T08:12:04;99051.41;;;20.65;66.55
80733;BME280;70130;44.534;18.678;2023-09-18T08:14:33;99049.09;;;20.67;66.60
80733;BME280;70130;44.534;18.678;2023-09-18T08:17:05;99047.91;;;20.96;66.74
80733;BME280;70130;44.534;18.678;2023-09-18T08:19:33;99049.44;;;21.08;65.18
80733;BME280;70130;44.534;18.678;2023-09-18T08:21:59;99048.25;;;21.09;65.30
80733;BME280;70130;44.534;18.678;2023-09-18T08:24:25;99045.16;;;21.14;65.05
80733;BME280;70130;44.534;18.678;2023-09-18T08:26:51;99050.63;;;21.14;65.39
80733;BME280;70130;44.534;18.678;2023-09-18T08:29:17;99048.66;;;21.29;64.91
80733;BME280;70130;44.534;18.678;2023-09-18T08:31:43;99045.50;;;21.41;64.06
80733;BME280;70130;44.534;18.678;2023-09-18T08:34:09;99058.69;;;21.64;63.32
80733;BME280;70130;44.534;18.678;2023-09-18T08:36:35;99059.81;;;21.77;62.77
80733;BME280;70130;44.534;18.678;2023-09-18T08:39:01;99071.06;;;21.96;63.12
80733;BME280;70130;44.534;18.678;2023-09-18T08:41:28;99065.56;;;22.04;63.68
80733;BME280;70130;44.534;18.678;2023-09-18T08:44:00;99055.38;;;22.15;63.58
80733;BME280;70130;44.534;18.678;2023-09-18T08:46:26;99067.84;;;22.19;63.42
80733;BME280;70130;44.534;18.678;2023-09-18T08:48:52;99075.78;;;22.55;62.53
80733;BME280;70130;44.534;18.678;2023-09-18T08:51:19;99070.38;;;22.48;62.45
80733;BME280;70130;44.534;18.678;2023-09-18T08:53:46;99073.41;;;22.60;61.98
80733;BME280;70130;44.534;18.678;2023-09-18T08:56:13;99069.53;;;22.58;62.19
80733;BME280;70130;44.534;18.678;2023-09-18T08:58:39;99060.06;;;22.73;61.91
80733;BME280;70130;44.534;18.678;2023-09-18T09:01:08;99053.78;;;22.76;61.49
80733;BME280;70130;44.534;18.678;2023-09-18T09:03:37;99051.84;;;22.76;61.93
80733;BME280;70130;44.534;18.678;2023-09-18T09:06:02;99043.41;;;23.01;61.20
80733;BME280;70130;44.534;18.678;2023-09-18T09:08:29;99039.94;;;22.97;60.55
80733;BME280;70130;44.534;18.678;2023-09-18T09:10:54;99030.66;;;23.25;60.21
80733;BME280;70130;44.534;18.678;2023-09-18T09:13:24;99029.91;;;23.21;59.93
80733;BME280;70130;44.534;18.678;2023-09-18T09:15:54;99027.91;;;23.25;59.28
80733;BME280;70130;44.534;18.678;2023-09-18T09:18:27;99012.53;;;23.38;59.70
80733;BME280;70130;44.534;18.678;2023-09-18T09:23:25;99004.41;;;23.65;56.98
80733;BME280;70130;44.534;18.678;2023-09-18T09:25:51;99005.13;;;23.69;56.21
80733;BME280;70130;44.534;18.678;2023-09-18T09:28:29;99001.53;;;23.76;55.69
80733;BME280;70130;44.534;18.678;2023-09-18T09:31:00;99000.81;;;23.98;55.40
80733;BME280;70130;44.534;18.678;2023-09-18T09:33:30;99005.28;;;24.16;55.05
80733;BME280;70130;44.534;18.678;2023-09-18T09:35:56;98997.22;;;24.05;53.60
80733;BME280;70130;44.534;18.678;2023-09-18T09:38:28;99000.72;;;24.05;52.86
80733;BME280;70130;44.534;18.678;2023-09-18T09:40:57;98988.59;;;24.06;52.83
80733;BME280;70130;44.534;18.678;2023-09-18T09:43:26;98990.63;;;23.99;53.33
80733;BME280;70130;44.534;18.678;2023-09-18T09:46:01;98989.31;;;24.10;52.14
80733;BME280;70130;44.534;18.678;2023-09-18T09:48:28;98984.72;;;24.31;52.13
80733;BME280;70130;44.534;18.678;2023-09-18T09:50:59;98976.66;;;24.43;50.18
80733;BME280;70130;44.534;18.678;2023-09-18T09:53:48;98974.72;;;24.44;50.39
80733;BME280;70130;44.534;18.678;2023-09-18T09:56:16;98968.69;;;24.52;50.60
80733;BME280;70130;44.534;18.678;2023-09-18T09:59:04;98974.94;;;24.53;50.59
80733;BME280;70130;44.534;18.678;2023-09-18T10:01:33;98967.09;;;24.55;50.52
80733;BME280;70130;44.534;18.678;2023-09-18T10:04:04;98967.47;;;24.77;50.00
80733;BME280;70130;44.534;18.678;2023-09-18T10:06:34;98972.81;;;24.87;49.72
80733;BME280;70130;44.534;18.678;2023-09-18T10:09:04;98983.81;;;25.27;47.55
80733;BME280;70130;44.534;18.678;2023-09-18T10:11:34;98974.88;;;25.23;47.97
80733;BME280;70130;44.534;18.678;2023-09-18T10:14:20;98972.06;;;25.46;47.41
80733;BME280;70130;44.534;18.678;2023-09-18T10:16:51;98964.06;;;25.55;47.49
80733;BME280;70130;44.534;18.678;2023-09-18T10:19:27;98955.06;;;25.51;47.37
80733;BME280;70130;44.534;18.678;2023-09-18T10:24:34;98954.25;;;25.54;46.68
80733;BME280;70130;44.534;18.678;2023-09-18T10:27:03;98943.13;;;25.61;46.88
80733;BME280;70130;44.534;18.678;2023-09-18T10:29:34;98956.03;;;25.64;46.79
80733;BME280;70130;44.534;18.678;2023-09-18T10:32:05;98940.66;;;25.67;46.24
80733;BME280;70130;44.534;18.678;2023-09-18T10:34:39;98940.63;;;26.19;44.73
80733;BME280;70130;44.534;18.678;2023-09-18T10:37:10;98934.69;;;26.20;44.61
80733;BME280;70130;44.534;18.678;2023-09-18T10:39:42;98930.41;;;26.03;45.03
80733;BME280;70130;44.534;18.678;2023-09-18T10:42:13;98931.34;;;25.97;45.54
80733;BME280;70130;44.534;18.678;2023-09-18T10:44:42;98927.28;;;26.01;44.68
80733;BME280;70130;44.534;18.678;2023-09-18T10:47:10;98932.91;;;26.14;45.02
80733;BME280;70130;44.534;18.678;2023-09-18T10:49:36;98927.59;;;26.23;44.96
80733;BME280;70130;44.534;18.678;2023-09-18T10:52:03;98929.31;;;26.33;45.09
80733;BME280;70130;44.534;18.678;2023-09-18T10:54:31;98925.44;;;26.47;44.43
80733;BME280;70130;44.534;18.678;2023-09-18T10:57:02;98917.59;;;26.45;44.21
80733;BME280;70130;44.534;18.678;2023-09-18T10:59:31;98913.91;;;26.52;44.41
80733;BME280;70130;44.534;18.678;2023-09-18T11:02:04;98905.50;;;26.43;44.34
80733;BME280;70130;44.534;18.678;2023-09-18T11:04:34;98906.16;;;26.47;43.98
80733;BME280;70130;44.534;18.678;2023-09-18T11:07:02;98900.50;;;26.54;43.82
80733;BME280;70130;44.534;18.678;2023-09-18T11:09:41;98901.69;;;26.53;43.91
80733;BME280;70130;44.534;18.678;2023-09-18T11:12:09;98898.94;;;26.53;43.88
80733;BME280;70130;44.534;18.678;2023-09-18T11:17:35;98894.69;;;26.64;43.29
80733;BME280;70130;44.534;18.678;2023-09-18T11:20:03;98899.75;;;26.66;43.38
80733;BME280;70130;44.534;18.678;2023-09-18T11:22:45;98895.31;;;27.14;41.86
80733;BME280;70130;44.534;18.678;2023-09-18T11:28:16;98889.50;;;27.12;42.60
80733;BME280;70130;44.534;18.678;2023-09-18T11:30:52;98880.47;;;27.11;42.71
80733;BME280;70130;44.534;18.678;2023-09-18T11:33:39;98878.59;;;27.08;42.76
80733;BME280;70130;44.534;18.678;2023-09-18T11:36:08;98879.13;;;27.03;43.17
80733;BME280;70130;44.534;18.678;2023-09-18T11:38:58;98872.19;;;26.98;42.76
80733;BME280;70130;44.534;18.678;2023-09-18T11:41:32;98868.97;;;27.00;42.16
80733;BME280;70130;44.534;18.678;2023-09-18T11:46:52;98860.13;;;27.59;41.67
80733;BME280;70130;44.534;18.678;2023-09-18T11:49:23;98856.63;;;27.59;41.20
80733;BME280;70130;44.534;18.678;2023-09-18T11:51:52;98859.16;;;27.66;41.25
80733;BME280;70130;44.534;18.678;2023-09-18T11:54:18;98854.28;;;27.95;40.15
80733;BME280;70130;44.534;18.678;2023-09-18T11:56:44;98849.41;;;27.99;40.51
80733;BME280;70130;44.534;18.678;2023-09-18T11:59:10;98846.00;;;27.95;40.48
80733;BME280;70130;44.534;18.678;2023-09-18T12:01:37;98848.09;;;28.16;39.63
80733;BME280;70130;44.534;18.678;2023-09-18T12:04:06;98838.16;;;28.06;39.51
80733;BME280;70130;44.534;18.678;2023-09-18T12:06:39;98825.13;;;28.07;39.87
80733;BME280;70130;44.534;18.678;2023-09-18T12:09:06;98823.56;;;28.18;39.36
80733;BME280;70130;44.534;18.678;2023-09-18T12:11:33;98817.75;;;28.16;39.66
80733;BME280;70130;44.534;18.678;2023-09-18T12:14:03;98811.91;;;28.14;39.36
80733;BME280;70130;44.534;18.678;2023-09-18T12:16:29;98814.63;;;28.27;39.45
80733;BME280;70130;44.534;18.678;2023-09-18T12:18:55;98819.72;;;28.16;39.49
80733;BME280;70130;44.534;18.678;2023-09-18T12:21:22;98831.63;;;28.13;39.33
80733;BME280;70130;44.534;18.678;2023-09-18T12:23:48;98844.78;;;28.21;38.90
80733;BME280;70130;44.534;18.678;2023-09-18T12:26:16;98838.63;;;28.39;38.46
80733;BME280;70130;44.534;18.678;2023-09-18T12:28:43;98843.31;;;28.29;38.61
80733;BME280;70130;44.534;18.678;2023-09-18T12:31:11;98839.06;;;28.38;38.62
80733;BME280;70130;44.534;18.678;2023-09-18T12:33:38;98845.34;;;28.51;38.63
80733;BME280;70130;44.534;18.678;2023-09-18T12:36:05;98848.66;;;28.46;38.15
80733;BME280;70130;44.534;18.678;2023-09-18T12:38:32;98850.00;;;28.63;37.96
80733;BME280;70130;44.534;18.678;2023-09-18T12:40:59;98853.63;;;28.72;37.42
80733;BME280;70130;44.534;18.678;2023-09-18T12:43:39;98851.38;;;29.02;37.07
80733;BME280;70130;44.534;18.678;2023-09-18T12:46:07;98847.69;;;28.74;37.58
80733;BME280;70130;44.534;18.678;2023-09-18T12:48:37;98848.38;;;28.87;37.52
80733;BME280;70130;44.534;18.678;2023-09-18T12:51:07;98854.47;;;28.82;37.49
80733;BME280;70130;44.534;18.678;2023-09-18T12:53:33;98855.78;;;28.90;37.58
80733;BME280;70130;44.534;18.678;2023-09-18T12:56:10;98854.47;;;28.82;37.53
80733;BME280;70130;44.534;18.678;2023-09-18T12:58:38;98849.09;;;28.79;37.80
80733;BME280;70130;44.534;18.678;2023-09-18T13:01:05;98860.53;;;28.90;37.63
80733;BME280;70130;44.534;18.678;2023-09-18T13:03:41;98852.75;;;28.75;38.06
80733;BME280;70130;44.534;18.678;2023-09-18T13:06:10;98853.19;;;28.74;38.32
80733;BME280;70130;44.534;18.678;2023-09-18T13:08:39;98860.78;;;28.83;39.01
80733;BME280;70130;44.534;18.678;2023-09-18T13:11:08;98860.13;;;29.00;38.53
80733;BME280;70130;44.534;18.678;2023-09-18T13:13:40;98850.59;;;29.01;38.15
80733;BME280;70130;44.534;18.678;2023-09-18T13:16:10;98864.31;;;29.05;38.09
80733;BME280;70130;44.534;18.678;2023-09-18T13:18:47;98856.66;;;29.09;38.56